Аэропорт: Сургут. Сургут

ICAO: USRR

METAR:
2020-08-09 23:00:00
USRR 092300Z 14003MPS CAVOK 19/17 Q1003 R07/12//60 NOSIG RMK QFE747
METAR:
2020-08-09 19:55:00
TAF USRR 091955Z 0921/1021 10003MPS CAVOK TEMPO 0921/1002 1000 BR SCT003 BECMG 1002/1003 10004G11MPS